sensor_id;sensor_type;location;lat;lon;timestamp;temperature;humidity
44773;DHT22;30492;52.088;5.122;2022-08-01T00:02:07;20.50;99.90
44773;DHT22;30492;52.088;5.122;2022-08-01T00:05:13;20.50;99.90
44773;DHT22;30492;52.088;5.122;2022-08-01T00:08:18;20.50;99.90
44773;DHT22;30492;52.088;5.122;2022-08-01T00:11:23;20.40;99.90
44773;DHT22;30492;52.088;5.122;2022-08-01T00:14:28;20.40;99.90
44773;DHT22;30492;52.088;5.122;2022-08-01T00:17:34;20.40;99.90
44773;DHT22;30492;52.088;5.122;2022-08-01T00:20:40;20.30;99.90
44773;DHT22;30492;52.088;5.122;2022-08-01T00:23:45;20.30;99.90
44773;DHT22;30492;52.088;5.122;2022-08-01T00:26:50;20.30;99.90
44773;DHT22;30492;52.088;5.122;2022-08-01T00:29:55;20.30;99.90
44773;DHT22;30492;52.088;5.122;2022-08-01T00:33:00;20.30;99.90
44773;DHT22;30492;52.088;5.122;2022-08-01T00:36:07;20.30;99.90
44773;DHT22;30492;52.088;5.122;2022-08-01T00:39:13;20.30;99.90
44773;DHT22;30492;52.088;5.122;2022-08-01T00:42:18;20.30;99.90
44773;DHT22;30492;52.088;5.122;2022-08-01T00:45:23;20.30;99.90
44773;DHT22;30492;52.088;5.122;2022-08-01T00:48:29;20.20;99.90
44773;DHT22;30492;52.088;5.122;2022-08-01T00:51:35;20.20;99.90
44773;DHT22;30492;52.088;5.122;2022-08-01T00:54:40;20.20;99.90
44773;DHT22;30492;52.088;5.122;2022-08-01T00:57:46;20.30;99.90
44773;DHT22;30492;52.088;5.122;2022-08-01T01:00:51;20.30;99.90
44773;DHT22;30492;52.088;5.122;2022-08-01T01:03:56;20.30;99.90
44773;DHT22;30492;52.088;5.122;2022-08-01T01:07:07;20.30;99.90
44773;DHT22;30492;52.088;5.122;2022-08-01T01:10:19;20.30;99.90
44773;DHT22;30492;52.088;5.122;2022-08-01T01:13:32;20.30;99.90
44773;DHT22;30492;52.088;5.122;2022-08-01T01:16:41;20.30;99.90
44773;DHT22;30492;52.088;5.122;2022-08-01T01:19:47;20.20;99.90
44773;DHT22;30492;52.088;5.122;2022-08-01T01:26:36;20.20;99.90
44773;DHT22;30492;52.088;5.122;2022-08-01T01:29:48;20.20;99.90
44773;DHT22;30492;52.088;5.122;2022-08-01T01:32:58;20.10;99.90
44773;DHT22;30492;52.088;5.122;2022-08-01T01:36:08;20.10;99.90
44773;DHT22;30492;52.088;5.122;2022-08-01T01:39:14;20.10;99.90
44773;DHT22;30492;52.088;5.122;2022-08-01T01:42:24;20.10;99.90
44773;DHT22;30492;52.088;5.122;2022-08-01T01:45:31;20.00;99.90
44773;DHT22;30492;52.088;5.122;2022-08-01T01:48:38;19.90;99.90
44773;DHT22;30492;52.088;5.122;2022-08-01T01:51:44;19.90;99.90
44773;DHT22;30492;52.088;5.122;2022-08-01T01:54:51;19.90;99.90
44773;DHT22;30492;52.088;5.122;2022-08-01T01:57:58;19.90;99.90
44773;DHT22;30492;52.088;5.122;2022-08-01T02:01:06;19.90;99.90
44773;DHT22;30492;52.088;5.122;2022-08-01T02:04:12;19.90;99.90
44773;DHT22;30492;52.088;5.122;2022-08-01T02:07:22;19.90;99.90
44773;DHT22;30492;52.088;5.122;2022-08-01T02:10:28;19.90;99.90
44773;DHT22;30492;52.088;5.122;2022-08-01T02:13:36;19.90;99.90
44773;DHT22;30492;52.088;5.122;2022-08-01T02:16:47;19.90;99.90
44773;DHT22;30492;52.088;5.122;2022-08-01T02:19:52;19.90;99.90
44773;DHT22;30492;52.088;5.122;2022-08-01T02:23:01;19.90;99.90
44773;DHT22;30492;52.088;5.122;2022-08-01T02:26:14;20.00;99.90
44773;DHT22;30492;52.088;5.122;2022-08-01T02:29:24;20.00;99.90
44773;DHT22;30492;52.088;5.122;2022-08-01T02:32:36;20.00;99.90
44773;DHT22;30492;52.088;5.122;2022-08-01T02:35:47;19.90;99.90
44773;DHT22;30492;52.088;5.122;2022-08-01T02:38:54;19.90;99.90
44773;DHT22;30492;52.088;5.122;2022-08-01T02:42:04;19.90;99.90
44773;DHT22;30492;52.088;5.122;2022-08-01T02:45:13;20.00;99.90
44773;DHT22;30492;52.088;5.122;2022-08-01T02:48:21;20.00;99.90
44773;DHT22;30492;52.088;5.122;2022-08-01T02:51:28;20.00;99.90
44773;DHT22;30492;52.088;5.122;2022-08-01T02:54:36;20.00;99.90
44773;DHT22;30492;52.088;5.122;2022-08-01T02:57:42;20.00;99.90
44773;DHT22;30492;52.088;5.122;2022-08-01T03:00:48;20.10;99.90
44773;DHT22;30492;52.088;5.122;2022-08-01T03:03:55;20.00;99.90
44773;DHT22;30492;52.088;5.122;2022-08-01T03:07:03;20.00;99.90
44773;DHT22;30492;52.088;5.122;2022-08-01T03:10:10;20.00;99.90
44773;DHT22;30492;52.088;5.122;2022-08-01T03:13:18;20.00;99.90
44773;DHT22;30492;52.088;5.122;2022-08-01T03:16:24;20.00;99.90
44773;DHT22;30492;52.088;5.122;2022-08-01T03:19:33;20.00;99.90
44773;DHT22;30492;52.088;5.122;2022-08-01T03:22:39;20.00;99.90
44773;DHT22;30492;52.088;5.122;2022-08-01T03:25:45;20.00;99.90
44773;DHT22;30492;52.088;5.122;2022-08-01T03:28:52;20.00;99.90
44773;DHT22;30492;52.088;5.122;2022-08-01T03:32:00;19.90;99.90
44773;DHT22;30492;52.088;5.122;2022-08-01T03:35:08;20.00;99.90
44773;DHT22;30492;52.088;5.122;2022-08-01T03:38:18;20.00;99.90
44773;DHT22;30492;52.088;5.122;2022-08-01T03:41:26;19.90;99.90
44773;DHT22;30492;52.088;5.122;2022-08-01T03:44:33;20.00;99.90
44773;DHT22;30492;52.088;5.122;2022-08-01T03:47:43;20.00;99.90
44773;DHT22;30492;52.088;5.122;2022-08-01T03:50:51;20.00;99.90
44773;DHT22;30492;52.088;5.122;2022-08-01T03:53:57;19.90;99.90
44773;DHT22;30492;52.088;5.122;2022-08-01T03:57:05;19.90;99.90
44773;DHT22;30492;52.088;5.122;2022-08-01T04:00:11;19.90;99.90
44773;DHT22;30492;52.088;5.122;2022-08-01T04:03:17;19.90;99.90
44773;DHT22;30492;52.088;5.122;2022-08-01T04:06:23;19.80;99.90
44773;DHT22;30492;52.088;5.122;2022-08-01T04:09:28;19.80;99.90
44773;DHT22;30492;52.088;5.122;2022-08-01T04:12:34;19.70;99.90
44773;DHT22;30492;52.088;5.122;2022-08-01T04:15:39;19.70;99.90
44773;DHT22;30492;52.088;5.122;2022-08-01T04:18:44;19.70;99.90
44773;DHT22;30492;52.088;5.122;2022-08-01T04:21:51;19.60;99.90
44773;DHT22;30492;52.088;5.122;2022-08-01T04:24:57;19.60;99.90
44773;DHT22;30492;52.088;5.122;2022-08-01T04:28:05;19.60;99.90
44773;DHT22;30492;52.088;5.122;2022-08-01T04:31:12;19.70;99.90
44773;DHT22;30492;52.088;5.122;2022-08-01T04:34:21;19.70;99.90
44773;DHT22;30492;52.088;5.122;2022-08-01T04:37:30;19.70;99.90
44773;DHT22;30492;52.088;5.122;2022-08-01T04:40:35;19.70;99.90
44773;DHT22;30492;52.088;5.122;2022-08-01T04:43:42;19.70;99.90
44773;DHT22;30492;52.088;5.122;2022-08-01T04:46:48;19.70;99.90
44773;DHT22;30492;52.088;5.122;2022-08-01T04:49:55;19.70;99.90
44773;DHT22;30492;52.088;5.122;2022-08-01T04:53:02;19.70;99.90
44773;DHT22;30492;52.088;5.122;2022-08-01T04:56:07;19.70;99.90
44773;DHT22;30492;52.088;5.122;2022-08-01T04:59:13;19.70;99.90
44773;DHT22;30492;52.088;5.122;2022-08-01T05:02:35;19.70;99.90
44773;DHT22;30492;52.088;5.122;2022-08-01T05:05:40;19.60;99.90
44773;DHT22;30492;52.088;5.122;2022-08-01T05:08:46;19.60;99.90
44773;DHT22;30492;52.088;5.122;2022-08-01T05:11:51;19.60;99.90
44773;DHT22;30492;52.088;5.122;2022-08-01T05:14:57;19.70;99.90
44773;DHT22;30492;52.088;5.122;2022-08-01T05:18:02;19.70;99.90
44773;DHT22;30492;52.088;5.122;2022-08-01T05:21:06;19.70;99.90
44773;DHT22;30492;52.088;5.122;2022-08-01T05:24:13;19.80;99.90
44773;DHT22;30492;52.088;5.122;2022-08-01T05:27:18;19.70;99.90
44773;DHT22;30492;52.088;5.122;2022-08-01T05:30:23;19.80;99.90
44773;DHT22;30492;52.088;5.122;2022-08-01T05:33:28;19.70;99.90
44773;DHT22;30492;52.088;5.122;2022-08-01T05:36:33;19.80;99.90
44773;DHT22;30492;52.088;5.122;2022-08-01T05:39:40;19.80;99.90
44773;DHT22;30492;52.088;5.122;2022-08-01T05:42:45;19.80;99.90
44773;DHT22;30492;52.088;5.122;2022-08-01T05:45:50;19.80;99.90
44773;DHT22;30492;52.088;5.122;2022-08-01T05:48:56;19.80;99.90
44773;DHT22;30492;52.088;5.122;2022-08-01T05:52:01;19.80;99.90
44773;DHT22;30492;52.088;5.122;2022-08-01T05:55:08;19.80;99.90
44773;DHT22;30492;52.088;5.122;2022-08-01T05:58:14;19.80;99.90
44773;DHT22;30492;52.088;5.122;2022-08-01T06:01:20;19.80;99.90
44773;DHT22;30492;52.088;5.122;2022-08-01T06:04:26;19.90;99.90
44773;DHT22;30492;52.088;5.122;2022-08-01T06:07:31;19.90;99.90
44773;DHT22;30492;52.088;5.122;2022-08-01T06:10:37;19.90;99.90
44773;DHT22;30492;52.088;5.122;2022-08-01T06:13:42;19.90;99.90
44773;DHT22;30492;52.088;5.122;2022-08-01T06:16:47;19.90;99.90
44773;DHT22;30492;52.088;5.122;2022-08-01T06:19:52;19.90;99.90
44773;DHT22;30492;52.088;5.122;2022-08-01T06:23:00;20.00;99.90
44773;DHT22;30492;52.088;5.122;2022-08-01T06:26:08;20.00;99.90
44773;DHT22;30492;52.088;5.122;2022-08-01T06:29:13;20.00;99.90
44773;DHT22;30492;52.088;5.122;2022-08-01T06:32:23;20.00;99.90
44773;DHT22;30492;52.088;5.122;2022-08-01T06:35:28;20.10;99.90
44773;DHT22;30492;52.088;5.122;2022-08-01T06:38:34;20.10;99.90
44773;DHT22;30492;52.088;5.122;2022-08-01T06:41:40;20.10;99.90
44773;DHT22;30492;52.088;5.122;2022-08-01T06:44:45;20.20;99.90
44773;DHT22;30492;52.088;5.122;2022-08-01T06:47:50;20.10;99.90
44773;DHT22;30492;52.088;5.122;2022-08-01T06:50:55;20.20;99.90
44773;DHT22;30492;52.088;5.122;2022-08-01T06:54:12;20.20;99.90
44773;DHT22;30492;52.088;5.122;2022-08-01T06:57:19;20.30;99.90
44773;DHT22;30492;52.088;5.122;2022-08-01T07:00:25;20.30;99.90
44773;DHT22;30492;52.088;5.122;2022-08-01T07:03:31;20.30;99.90
44773;DHT22;30492;52.088;5.122;2022-08-01T07:06:36;20.30;99.90
44773;DHT22;30492;52.088;5.122;2022-08-01T07:09:41;20.30;99.90
44773;DHT22;30492;52.088;5.122;2022-08-01T07:12:47;20.30;99.90
44773;DHT22;30492;52.088;5.122;2022-08-01T07:15:53;20.30;99.90
44773;DHT22;30492;52.088;5.122;2022-08-01T07:18:58;20.30;99.90
44773;DHT22;30492;52.088;5.122;2022-08-01T07:22:04;20.20;99.90
44773;DHT22;30492;52.088;5.122;2022-08-01T07:25:09;20.20;99.90
44773;DHT22;30492;52.088;5.122;2022-08-01T07:28:15;20.20;99.90
44773;DHT22;30492;52.088;5.122;2022-08-01T07:31:20;20.30;99.90
44773;DHT22;30492;52.088;5.122;2022-08-01T07:34:26;20.30;99.90
44773;DHT22;30492;52.088;5.122;2022-08-01T07:37:31;20.40;99.90
44773;DHT22;30492;52.088;5.122;2022-08-01T07:40:36;20.50;99.90
44773;DHT22;30492;52.088;5.122;2022-08-01T07:43:43;20.60;99.90
44773;DHT22;30492;52.088;5.122;2022-08-01T07:46:48;20.70;99.90
44773;DHT22;30492;52.088;5.122;2022-08-01T07:49:59;20.80;99.90
44773;DHT22;30492;52.088;5.122;2022-08-01T07:53:04;20.80;99.90
44773;DHT22;30492;52.088;5.122;2022-08-01T07:56:11;20.80;99.90
44773;DHT22;30492;52.088;5.122;2022-08-01T07:59:17;20.90;99.90
44773;DHT22;30492;52.088;5.122;2022-08-01T08:02:26;21.00;99.90
44773;DHT22;30492;52.088;5.122;2022-08-01T08:05:31;21.20;99.90
44773;DHT22;30492;52.088;5.122;2022-08-01T08:08:39;21.30;99.90
44773;DHT22;30492;52.088;5.122;2022-08-01T08:11:44;21.40;99.90
44773;DHT22;30492;52.088;5.122;2022-08-01T08:14:50;21.60;99.90
44773;DHT22;30492;52.088;5.122;2022-08-01T08:17:55;21.80;99.90
44773;DHT22;30492;52.088;5.122;2022-08-01T08:21:00;21.80;99.90
44773;DHT22;30492;52.088;5.122;2022-08-01T08:24:06;21.90;99.90
44773;DHT22;30492;52.088;5.122;2022-08-01T08:27:27;22.00;99.90
44773;DHT22;30492;52.088;5.122;2022-08-01T08:30:34;22.10;99.90
44773;DHT22;30492;52.088;5.122;2022-08-01T08:33:39;22.30;99.90
44773;DHT22;30492;52.088;5.122;2022-08-01T08:36:44;22.40;99.90
44773;DHT22;30492;52.088;5.122;2022-08-01T08:39:49;22.50;99.90
44773;DHT22;30492;52.088;5.122;2022-08-01T08:42:54;22.50;99.90
44773;DHT22;30492;52.088;5.122;2022-08-01T08:46:02;22.50;99.90
44773;DHT22;30492;52.088;5.122;2022-08-01T08:49:08;22.60;99.90
44773;DHT22;30492;52.088;5.122;2022-08-01T08:52:14;22.70;99.90
44773;DHT22;30492;52.088;5.122;2022-08-01T08:55:20;22.80;99.90
44773;DHT22;30492;52.088;5.122;2022-08-01T08:58:27;22.80;99.90
44773;DHT22;30492;52.088;5.122;2022-08-01T09:01:34;22.90;99.90
44773;DHT22;30492;52.088;5.122;2022-08-01T09:04:39;23.10;99.90
44773;DHT22;30492;52.088;5.122;2022-08-01T09:07:45;23.20;99.90
44773;DHT22;30492;52.088;5.122;2022-08-01T09:10:50;23.30;99.90
44773;DHT22;30492;52.088;5.122;2022-08-01T09:14:03;23.30;99.90
44773;DHT22;30492;52.088;5.122;2022-08-01T09:17:10;23.40;99.90
44773;DHT22;30492;52.088;5.122;2022-08-01T09:20:22;23.40;99.90
44773;DHT22;30492;52.088;5.122;2022-08-01T09:23:31;23.50;99.90
44773;DHT22;30492;52.088;5.122;2022-08-01T09:26:36;23.50;99.90
44773;DHT22;30492;52.088;5.122;2022-08-01T09:29:42;23.60;99.90
44773;DHT22;30492;52.088;5.122;2022-08-01T09:32:57;23.70;99.90
44773;DHT22;30492;52.088;5.122;2022-08-01T09:36:04;23.80;99.90
44773;DHT22;30492;52.088;5.122;2022-08-01T09:39:12;23.90;99.90
44773;DHT22;30492;52.088;5.122;2022-08-01T09:42:18;23.90;99.90
44773;DHT22;30492;52.088;5.122;2022-08-01T09:45:31;23.90;99.90
44773;DHT22;30492;52.088;5.122;2022-08-01T09:48:39;23.90;99.90
44773;DHT22;30492;52.088;5.122;2022-08-01T09:52:09;23.90;99.90
44773;DHT22;30492;52.088;5.122;2022-08-01T09:55:21;23.80;99.90
44773;DHT22;30492;52.088;5.122;2022-08-01T09:58:26;23.80;99.90
44773;DHT22;30492;52.088;5.122;2022-08-01T10:01:45;23.80;99.90
44773;DHT22;30492;52.088;5.122;2022-08-01T10:04:52;23.70;99.90
44773;DHT22;30492;52.088;5.122;2022-08-01T10:07:59;23.70;99.90
44773;DHT22;30492;52.088;5.122;2022-08-01T10:11:08;23.70;99.90
44773;DHT22;30492;52.088;5.122;2022-08-01T10:14:13;23.80;99.90
44773;DHT22;30492;52.088;5.122;2022-08-01T10:17:19;23.80;99.90
44773;DHT22;30492;52.088;5.122;2022-08-01T10:20:28;23.80;99.90
44773;DHT22;30492;52.088;5.122;2022-08-01T10:23:35;24.00;99.90
44773;DHT22;30492;52.088;5.122;2022-08-01T10:26:41;23.90;99.90
44773;DHT22;30492;52.088;5.122;2022-08-01T10:29:50;24.00;99.90
44773;DHT22;30492;52.088;5.122;2022-08-01T10:32:56;24.10;99.90
44773;DHT22;30492;52.088;5.122;2022-08-01T10:36:04;24.10;99.90
44773;DHT22;30492;52.088;5.122;2022-08-01T10:39:10;24.20;99.90
44773;DHT22;30492;52.088;5.122;2022-08-01T10:42:16;24.20;99.90
44773;DHT22;30492;52.088;5.122;2022-08-01T10:45:22;24.30;99.90
44773;DHT22;30492;52.088;5.122;2022-08-01T10:48:33;24.30;99.90
44773;DHT22;30492;52.088;5.122;2022-08-01T10:51:41;24.30;99.90
44773;DHT22;30492;52.088;5.122;2022-08-01T10:54:47;24.30;99.90
44773;DHT22;30492;52.088;5.122;2022-08-01T10:57:52;24.20;99.90
44773;DHT22;30492;52.088;5.122;2022-08-01T11:01:19;24.20;99.90
44773;DHT22;30492;52.088;5.122;2022-08-01T11:04:44;24.20;99.90
44773;DHT22;30492;52.088;5.122;2022-08-01T11:07:58;24.10;99.90
44773;DHT22;30492;52.088;5.122;2022-08-01T11:11:06;24.10;99.90
44773;DHT22;30492;52.088;5.122;2022-08-01T11:14:12;24.10;99.90
44773;DHT22;30492;52.088;5.122;2022-08-01T11:17:34;24.20;99.90
44773;DHT22;30492;52.088;5.122;2022-08-01T11:20:55;24.20;99.90
44773;DHT22;30492;52.088;5.122;2022-08-01T11:24:06;24.20;99.90
44773;DHT22;30492;52.088;5.122;2022-08-01T11:27:15;24.20;99.90
44773;DHT22;30492;52.088;5.122;2022-08-01T11:30:24;24.30;99.90
44773;DHT22;30492;52.088;5.122;2022-08-01T11:33:48;24.50;99.90
44773;DHT22;30492;52.088;5.122;2022-08-01T11:37:22;24.70;99.90
44773;DHT22;30492;52.088;5.122;2022-08-01T11:40:29;24.90;99.90
44773;DHT22;30492;52.088;5.122;2022-08-01T11:43:34;25.00;99.90
44773;DHT22;30492;52.088;5.122;2022-08-01T11:46:57;25.20;99.90
44773;DHT22;30492;52.088;5.122;2022-08-01T11:50:04;25.40;99.90
44773;DHT22;30492;52.088;5.122;2022-08-01T11:53:09;25.50;99.90
44773;DHT22;30492;52.088;5.122;2022-08-01T11:56:19;25.70;99.90
44773;DHT22;30492;52.088;5.122;2022-08-01T11:59:25;25.80;99.90
44773;DHT22;30492;52.088;5.122;2022-08-01T12:02:32;26.00;99.90
44773;DHT22;30492;52.088;5.122;2022-08-01T12:05:38;26.10;99.90
44773;DHT22;30492;52.088;5.122;2022-08-01T12:08:44;26.20;99.90
44773;DHT22;30492;52.088;5.122;2022-08-01T12:11:52;26.40;99.90
44773;DHT22;30492;52.088;5.122;2022-08-01T12:15:00;26.60;99.90
44773;DHT22;30492;52.088;5.122;2022-08-01T12:18:06;26.80;99.90
44773;DHT22;30492;52.088;5.122;2022-08-01T12:21:11;26.90;99.90
44773;DHT22;30492;52.088;5.122;2022-08-01T12:24:21;26.90;99.90
44773;DHT22;30492;52.088;5.122;2022-08-01T12:27:29;26.80;99.90
44773;DHT22;30492;52.088;5.122;2022-08-01T12:30:37;26.70;99.90
44773;DHT22;30492;52.088;5.122;2022-08-01T12:33:42;26.80;99.90
44773;DHT22;30492;52.088;5.122;2022-08-01T12:36:48;26.70;99.90
44773;DHT22;30492;52.088;5.122;2022-08-01T12:39:53;26.80;99.90
44773;DHT22;30492;52.088;5.122;2022-08-01T12:43:04;26.80;99.90
44773;DHT22;30492;52.088;5.122;2022-08-01T12:46:11;26.90;99.90
44773;DHT22;30492;52.088;5.122;2022-08-01T12:49:20;26.90;99.90
44773;DHT22;30492;52.088;5.122;2022-08-01T12:52:25;26.80;99.90
44773;DHT22;30492;52.088;5.122;2022-08-01T12:55:30;26.70;99.90
44773;DHT22;30492;52.088;5.122;2022-08-01T12:58:36;26.70;99.90
44773;DHT22;30492;52.088;5.122;2022-08-01T13:01:41;26.60;99.90
44773;DHT22;30492;52.088;5.122;2022-08-01T13:04:50;26.60;99.90
44773;DHT22;30492;52.088;5.122;2022-08-01T13:07:56;26.60;99.90
44773;DHT22;30492;52.088;5.122;2022-08-01T13:11:02;26.50;99.90
44773;DHT22;30492;52.088;5.122;2022-08-01T13:14:28;26.50;99.90
44773;DHT22;30492;52.088;5.122;2022-08-01T13:17:33;26.40;99.90
44773;DHT22;30492;52.088;5.122;2022-08-01T13:20:42;26.40;99.90
44773;DHT22;30492;52.088;5.122;2022-08-01T13:24:01;26.50;99.90
44773;DHT22;30492;52.088;5.122;2022-08-01T13:27:06;26.50;99.90
44773;DHT22;30492;52.088;5.122;2022-08-01T13:30:14;26.50;99.90
44773;DHT22;30492;52.088;5.122;2022-08-01T13:33:20;26.30;99.90
44773;DHT22;30492;52.088;5.122;2022-08-01T13:36:26;26.40;99.90
44773;DHT22;30492;52.088;5.122;2022-08-01T13:39:32;26.30;99.90
44773;DHT22;30492;52.088;5.122;2022-08-01T13:42:45;26.40;99.90
44773;DHT22;30492;52.088;5.122;2022-08-01T13:45:52;26.50;99.90
44773;DHT22;30492;52.088;5.122;2022-08-01T13:48:57;26.50;99.90
44773;DHT22;30492;52.088;5.122;2022-08-01T13:52:03;26.50;99.90
44773;DHT22;30492;52.088;5.122;2022-08-01T13:55:09;26.50;99.90
44773;DHT22;30492;52.088;5.122;2022-08-01T13:58:14;26.60;99.90
44773;DHT22;30492;52.088;5.122;2022-08-01T14:01:21;26.60;99.90
44773;DHT22;30492;52.088;5.122;2022-08-01T14:04:27;26.50;99.90
44773;DHT22;30492;52.088;5.122;2022-08-01T14:07:32;26.40;98.90
44773;DHT22;30492;52.088;5.122;2022-08-01T14:10:37;26.40;99.90
44773;DHT22;30492;52.088;5.122;2022-08-01T14:13:42;26.40;99.90
44773;DHT22;30492;52.088;5.122;2022-08-01T14:16:48;26.40;99.90
44773;DHT22;30492;52.088;5.122;2022-08-01T14:19:53;26.50;99.90
44773;DHT22;30492;52.088;5.122;2022-08-01T14:23:00;26.60;99.90
44773;DHT22;30492;52.088;5.122;2022-08-01T14:26:05;26.60;99.90
44773;DHT22;30492;52.088;5.122;2022-08-01T14:29:11;26.60;99.90
44773;DHT22;30492;52.088;5.122;2022-08-01T14:32:17;26.70;99.90
44773;DHT22;30492;52.088;5.122;2022-08-01T14:35:22;26.70;99.90
44773;DHT22;30492;52.088;5.122;2022-08-01T14:38:27;26.70;99.50
44773;DHT22;30492;52.088;5.122;2022-08-01T14:41:32;26.80;99.20
44773;DHT22;30492;52.088;5.122;2022-08-01T14:44:38;26.80;98.30
44773;DHT22;30492;52.088;5.122;2022-08-01T14:47:44;26.80;97.50
44773;DHT22;30492;52.088;5.122;2022-08-01T14:50:49;26.80;97.00
44773;DHT22;30492;52.088;5.122;2022-08-01T14:53:54;26.90;95.90
44773;DHT22;30492;52.088;5.122;2022-08-01T14:56:59;26.90;95.00
44773;DHT22;30492;52.088;5.122;2022-08-01T15:00:07;26.90;94.90
44773;DHT22;30492;52.088;5.122;2022-08-01T15:03:15;26.80;95.00
44773;DHT22;30492;52.088;5.122;2022-08-01T15:06:20;26.80;95.50
44773;DHT22;30492;52.088;5.122;2022-08-01T15:09:25;26.70;94.70
44773;DHT22;30492;52.088;5.122;2022-08-01T15:12:30;26.70;94.90
44773;DHT22;30492;52.088;5.122;2022-08-01T15:15:35;26.70;95.30
44773;DHT22;30492;52.088;5.122;2022-08-01T15:18:41;26.70;95.60
44773;DHT22;30492;52.088;5.122;2022-08-01T15:21:46;26.70;95.90
44773;DHT22;30492;52.088;5.122;2022-08-01T15:24:53;26.70;96.10
44773;DHT22;30492;52.088;5.122;2022-08-01T15:27:58;26.70;96.40
44773;DHT22;30492;52.088;5.122;2022-08-01T15:31:03;26.70;96.60
44773;DHT22;30492;52.088;5.122;2022-08-01T15:34:10;26.70;96.30
44773;DHT22;30492;52.088;5.122;2022-08-01T15:37:14;26.50;96.10
44773;DHT22;30492;52.088;5.122;2022-08-01T15:40:20;26.50;96.90
44773;DHT22;30492;52.088;5.122;2022-08-01T15:43:24;26.60;96.50
44773;DHT22;30492;52.088;5.122;2022-08-01T15:46:30;26.60;96.40
44773;DHT22;30492;52.088;5.122;2022-08-01T15:49:38;26.60;96.50
44773;DHT22;30492;52.088;5.122;2022-08-01T15:52:43;26.60;96.60
44773;DHT22;30492;52.088;5.122;2022-08-01T15:55:48;26.60;96.30
44773;DHT22;30492;52.088;5.122;2022-08-01T15:58:54;26.50;95.50
44773;DHT22;30492;52.088;5.122;2022-08-01T16:01:59;26.50;95.30
44773;DHT22;30492;52.088;5.122;2022-08-01T16:05:06;26.50;95.50
44773;DHT22;30492;52.088;5.122;2022-08-01T16:08:13;26.50;95.30
44773;DHT22;30492;52.088;5.122;2022-08-01T16:11:19;26.30;93.70
44773;DHT22;30492;52.088;5.122;2022-08-01T16:14:26;26.30;94.60
44773;DHT22;30492;52.088;5.122;2022-08-01T16:17:31;26.20;94.90
44773;DHT22;30492;52.088;5.122;2022-08-01T16:20:38;26.20;94.90
44773;DHT22;30492;52.088;5.122;2022-08-01T16:23:44;26.10;94.60
44773;DHT22;30492;52.088;5.122;2022-08-01T16:26:49;26.10;94.50
44773;DHT22;30492;52.088;5.122;2022-08-01T16:29:54;26.10;94.50
44773;DHT22;30492;52.088;5.122;2022-08-01T16:32:59;26.00;94.30
44773;DHT22;30492;52.088;5.122;2022-08-01T16:36:05;25.90;94.30
44773;DHT22;30492;52.088;5.122;2022-08-01T16:39:10;25.90;94.70
44773;DHT22;30492;52.088;5.122;2022-08-01T16:42:15;25.80;94.80
44773;DHT22;30492;52.088;5.122;2022-08-01T16:45:20;25.80;95.00
44773;DHT22;30492;52.088;5.122;2022-08-01T16:48:25;25.70;95.20
44773;DHT22;30492;52.088;5.122;2022-08-01T16:51:32;25.70;94.90
44773;DHT22;30492;52.088;5.122;2022-08-01T16:54:38;25.70;94.60
44773;DHT22;30492;52.088;5.122;2022-08-01T16:57:43;25.60;94.40
44773;DHT22;30492;52.088;5.122;2022-08-01T17:00:48;25.50;93.80
44773;DHT22;30492;52.088;5.122;2022-08-01T17:03:55;25.40;94.30
44773;DHT22;30492;52.088;5.122;2022-08-01T17:07:01;25.40;94.30
44773;DHT22;30492;52.088;5.122;2022-08-01T17:10:08;25.40;94.10
44773;DHT22;30492;52.088;5.122;2022-08-01T17:13:14;25.30;94.30
44773;DHT22;30492;52.088;5.122;2022-08-01T17:16:19;25.20;93.80
44773;DHT22;30492;52.088;5.122;2022-08-01T17:19:24;25.10;93.40
44773;DHT22;30492;52.088;5.122;2022-08-01T17:22:31;24.90;94.10
44773;DHT22;30492;52.088;5.122;2022-08-01T17:25:36;24.70;94.10
44773;DHT22;30492;52.088;5.122;2022-08-01T17:28:40;24.50;94.50
44773;DHT22;30492;52.088;5.122;2022-08-01T17:31:46;24.60;94.80
44773;DHT22;30492;52.088;5.122;2022-08-01T17:34:51;24.60;94.90
44773;DHT22;30492;52.088;5.122;2022-08-01T17:37:57;24.50;94.80
44773;DHT22;30492;52.088;5.122;2022-08-01T17:41:02;24.50;95.00
44773;DHT22;30492;52.088;5.122;2022-08-01T17:44:08;24.50;95.10
44773;DHT22;30492;52.088;5.122;2022-08-01T17:47:13;24.50;95.00
44773;DHT22;30492;52.088;5.122;2022-08-01T17:50:18;24.50;95.30
44773;DHT22;30492;52.088;5.122;2022-08-01T17:53:24;24.50;95.50
44773;DHT22;30492;52.088;5.122;2022-08-01T17:56:29;24.50;95.80
44773;DHT22;30492;52.088;5.122;2022-08-01T17:59:34;24.50;95.90
44773;DHT22;30492;52.088;5.122;2022-08-01T18:02:39;24.40;95.40
44773;DHT22;30492;52.088;5.122;2022-08-01T18:05:44;24.30;95.30
44773;DHT22;30492;52.088;5.122;2022-08-01T18:08:51;24.30;95.40
44773;DHT22;30492;52.088;5.122;2022-08-01T18:11:56;24.10;95.60
44773;DHT22;30492;52.088;5.122;2022-08-01T18:15:01;24.10;95.80
44773;DHT22;30492;52.088;5.122;2022-08-01T18:18:08;24.00;96.00
44773;DHT22;30492;52.088;5.122;2022-08-01T18:21:16;23.90;96.10
44773;DHT22;30492;52.088;5.122;2022-08-01T18:24:22;23.80;96.30
44773;DHT22;30492;52.088;5.122;2022-08-01T18:27:28;23.80;96.60
44773;DHT22;30492;52.088;5.122;2022-08-01T18:30:38;23.60;96.90
44773;DHT22;30492;52.088;5.122;2022-08-01T18:33:47;23.50;97.00
44773;DHT22;30492;52.088;5.122;2022-08-01T18:36:51;23.50;97.00
44773;DHT22;30492;52.088;5.122;2022-08-01T18:40:00;23.40;96.90
44773;DHT22;30492;52.088;5.122;2022-08-01T18:43:05;23.40;96.90
44773;DHT22;30492;52.088;5.122;2022-08-01T18:46:10;23.40;97.20
44773;DHT22;30492;52.088;5.122;2022-08-01T18:49:16;23.30;96.80
44773;DHT22;30492;52.088;5.122;2022-08-01T18:52:22;23.20;96.70
44773;DHT22;30492;52.088;5.122;2022-08-01T18:55:31;23.20;97.10
44773;DHT22;30492;52.088;5.122;2022-08-01T18:58:36;23.10;97.20
44773;DHT22;30492;52.088;5.122;2022-08-01T19:01:41;23.10;97.50
44773;DHT22;30492;52.088;5.122;2022-08-01T19:04:47;23.00;97.90
44773;DHT22;30492;52.088;5.122;2022-08-01T19:07:52;23.00;98.30
44773;DHT22;30492;52.088;5.122;2022-08-01T19:10:58;22.90;98.70
44773;DHT22;30492;52.088;5.122;2022-08-01T19:14:03;22.90;99.10
44773;DHT22;30492;52.088;5.122;2022-08-01T19:17:08;22.80;99.40
44773;DHT22;30492;52.088;5.122;2022-08-01T19:20:13;22.70;99.80
44773;DHT22;30492;52.088;5.122;2022-08-01T19:23:18;22.60;99.90
44773;DHT22;30492;52.088;5.122;2022-08-01T19:26:45;22.60;99.90
44773;DHT22;30492;52.088;5.122;2022-08-01T19:29:51;22.50;99.90
44773;DHT22;30492;52.088;5.122;2022-08-01T19:32:58;22.40;99.90
44773;DHT22;30492;52.088;5.122;2022-08-01T19:36:04;22.30;99.90
44773;DHT22;30492;52.088;5.122;2022-08-01T19:39:10;22.20;99.90
44773;DHT22;30492;52.088;5.122;2022-08-01T19:42:19;22.20;99.90
44773;DHT22;30492;52.088;5.122;2022-08-01T19:45:27;22.10;99.90